Time;durP1;ratioP1;P1;durP2;ratioP2;P2;SDS_P1;SDS_P2;PMS_P1;PMS_P2;Temp;Humidity;BMP_temperature;BMP_pressure;BME280_temperature;BME280_humidity;BME280_pressure;Samples;Min_cycle;Max_cycle;Signal;HPM_P1;HPM_P2
2023/11/25 00:00:55;;;;;;;3.78;0.70;;;;;;;4.64;55.04;99759.09;5097842;28;20050;-66
2023/11/25 00:03:20;;;;;;;2.97;0.88;;;;;;;4.47;54.94;99739.84;5099411;28;20059;-66
2023/11/25 00:05:46;;;;;;;3.17;0.80;;;;;;;4.55;55.49;99760.22;5098627;28;20024;-66
2023/11/25 00:08:11;;;;;;;8.27;1.88;;;;;;;4.45;55.70;99743.69;5098004;28;20041;-65
2023/11/25 00:10:37;;;;;;;1.92;0.52;;;;;;;4.41;56.69;99758.41;5099088;28;20024;-66
2023/11/25 00:13:03;;;;;;;3.88;0.73;;;;;;;4.27;57.25;99764.53;5098070;28;20044;-66
2023/11/25 00:15:29;;;;;;;3.85;1.58;;;;;;;4.27;57.63;99752.03;5097904;28;20028;-65
2023/11/25 00:17:55;;;;;;;4.82;2.33;;;;;;;4.28;58.35;99768.88;5098598;28;20039;-66
2023/11/25 00:20:21;;;;;;;3.15;0.68;;;;;;;4.18;58.67;99787.78;5098541;28;20032;-65
2023/11/25 00:22:47;;;;;;;4.63;0.70;;;;;;;4.07;60.70;99769.56;5096920;28;20020;-65
2023/11/25 00:25:13;;;;;;;3.35;1.48;;;;;;;4.14;60.94;99782.00;5095585;28;20024;-66
2023/11/25 00:27:39;;;;;;;5.07;2.53;;;;;;;4.04;64.48;99805.41;5096941;28;20119;-65
2023/11/25 00:30:07;;;;;;;4.15;1.02;;;;;;;4.15;66.36;99783.63;5097073;28;20036;-65
2023/11/25 00:32:37;;;;;;;3.17;0.90;;;;;;;4.37;65.79;99783.72;5096792;28;20338;-66
2023/11/25 00:35:07;;;;;;;4.47;1.05;;;;;;;4.38;66.34;99790.72;5096530;28;20020;-66
2023/11/25 00:37:33;;;;;;;3.40;0.60;;;;;;;4.33;68.61;99787.78;5096340;28;20028;-65
2023/11/25 00:40:01;;;;;;;4.32;0.65;;;;;;;4.52;67.82;99792.56;5093145;28;20415;-66
2023/11/25 00:42:27;;;;;;;4.00;0.60;;;;;;;3.94;72.29;99736.47;5095938;28;20024;-66
2023/11/25 00:44:53;;;;;;;4.10;0.70;;;;;;;4.45;72.06;99791.63;5095711;28;20225;-66
2023/11/25 00:47:19;;;;;;;2.50;0.80;;;;;;;4.52;72.29;99791.72;5078047;28;20034;-65
2023/11/25 00:49:48;;;;;;;1.65;0.50;;;;;;;4.64;69.15;99796.41;5081355;28;20046;-66
2023/11/25 00:52:13;;;;;;;2.08;0.60;;;;;;;4.48;73.94;99785.94;5098383;28;20024;-66
2023/11/25 00:54:39;;;;;;;3.15;0.80;;;;;;;4.48;75.09;99791.28;5096986;28;20100;-66
2023/11/25 00:57:04;;;;;;;2.53;0.60;;;;;;;4.36;76.74;99790.91;5096597;28;20051;-66
2023/11/25 00:59:30;;;;;;;1.50;0.30;;;;;;;4.38;75.81;99788.88;5098014;28;20429;-66
2023/11/25 01:01:56;;;;;;;4.18;0.55;;;;;;;4.22;75.72;99762.44;5096704;28;20035;-65
2023/11/25 01:04:21;;;;;;;1.23;0.40;;;;;;;4.39;73.99;99773.72;5098188;28;20019;-66
2023/11/25 01:06:47;;;;;;;2.42;0.60;;;;;;;4.42;73.74;99795.50;5079897;28;20065;-66
2023/11/25 01:09:15;;;;;;;2.55;0.45;;;;;;;4.31;74.85;99784.50;5096707;28;20028;-66
2023/11/25 01:11:44;;;;;;;1.80;0.57;;;;;;;4.31;73.45;99781.81;5097615;28;20066;-66
2023/11/25 01:14:10;;;;;;;4.72;0.90;;;;;;;3.99;75.71;99763.34;5096823;28;20063;-65
2023/11/25 01:16:36;;;;;;;2.53;0.75;;;;;;;3.89;78.08;99780.59;5097434;28;20566;-65
2023/11/25 01:19:02;;;;;;;3.00;0.60;;;;;;;3.98;76.84;99777.66;5096806;28;20016;-65
2023/11/25 01:21:27;;;;;;;5.90;0.73;;;;;;;3.99;76.43;99775.81;5079605;28;20035;-66
2023/11/25 01:23:52;;;;;;;2.00;0.60;;;;;;;3.81;78.40;99780.63;5102843;28;20032;-66
2023/11/25 01:26:18;;;;;;;3.33;0.90;;;;;;;3.80;79.48;99782.47;5100216;28;20024;-65
2023/11/25 01:28:43;;;;;;;2.70;1.38;;;;;;;3.86;76.70;99762.31;5103804;28;20132;-66
2023/11/25 01:31:12;;;;;;;2.38;0.70;;;;;;;3.72;79.59;99774.59;5103219;28;20073;-65
2023/11/25 01:33:40;;;;;;;2.53;0.70;;;;;;;3.48;81.55;99779.09;5097025;28;20081;-66
2023/11/25 01:36:09;;;;;;;1.95;0.50;;;;;;;3.63;80.17;99778.31;5096504;28;20084;-65
2023/11/25 01:38:39;;;;;;;2.80;0.38;;;;;;;3.53;79.62;99776.72;5096598;28;20052;-66
2023/11/25 01:41:05;;;;;;;2.65;0.65;;;;;;;3.62;77.65;99766.84;5096297;28;20493;-66
2023/11/25 01:43:34;;;;;;;2.50;0.47;;;;;;;3.49;78.39;99782.59;5096651;28;20038;-66
2023/11/25 01:46:01;;;;;;;2.42;0.47;;;;;;;3.58;77.87;99786.03;5097835;28;20027;-66
2023/11/25 01:48:31;;;;;;;2.60;0.85;;;;;;;3.68;75.58;99779.44;5095232;28;20403;-66
2023/11/25 01:50:57;;;;;;;6.68;1.10;;;;;;;3.73;74.64;99793.00;5095421;28;20028;-66
2023/11/25 01:53:25;;;;;;;6.72;1.50;;;;;;;3.70;75.40;99781.91;5098857;28;20043;-65
2023/11/25 01:55:53;;;;;;;8.43;1.60;;;;;;;3.79;73.75;99788.81;5096611;28;20062;-66
2023/11/25 01:58:22;;;;;;;5.70;1.15;;;;;;;3.86;73.96;99787.09;5092470;28;20661;-65
2023/11/25 02:00:51;;;;;;;3.72;1.10;;;;;;;3.82;73.02;99774.34;5095241;28;20031;-66
2023/11/25 02:03:17;;;;;;;3.03;0.90;;;;;;;3.76;73.14;99789.16;5094857;28;20127;-66
2023/11/25 02:05:44;;;;;;;2.08;0.60;;;;;;;3.71;73.07;99795.03;5097087;28;20188;-66
2023/11/25 02:08:10;;;;;;;1.40;0.52;;;;;;;3.68;73.25;99791.91;5096867;28;20028;-66
2023/11/25 02:10:36;;;;;;;1.45;0.50;;;;;;;3.67;72.58;99796.38;5095581;28;20497;-66
2023/11/25 02:13:02;;;;;;;1.90;0.50;;;;;;;3.61;73.54;99799.78;5096466;28;20043;-66
2023/11/25 02:15:28;;;;;;;2.75;0.52;;;;;;;3.58;72.54;99796.66;5095725;28;20031;-65
2023/11/25 02:17:55;;;;;;;1.80;0.40;;;;;;;3.53;72.96;99794.50;5096958;28;20414;-66
2023/11/25 02:20:31;;;;;;;5.85;0.65;;;;;;;3.51;72.90;99800.03;5097025;28;20040;-66
2023/11/25 02:22:57;;;;;;;3.30;0.50;;;;;;;3.35;72.95;99800.16;5096606;28;20385;-66
2023/11/25 02:25:23;;;;;;;2.25;0.68;;;;;;;3.21;72.58;99807.06;5095545;28;20032;-66
2023/11/25 02:27:49;;;;;;;2.45;0.50;;;;;;;3.16;73.14;99801.44;5096343;28;20490;-66
2023/11/25 02:30:15;;;;;;;2.75;0.52;;;;;;;3.09;73.14;99799.66;5095410;28;20028;-66
2023/11/25 02:32:41;;;;;;;4.00;0.60;;;;;;;2.93;73.19;99787.28;5095831;28;20036;-65
2023/11/25 02:35:07;;;;;;;2.78;0.70;;;;;;;2.98;74.05;99808.81;5096349;28;20803;-66
2023/11/25 02:37:32;;;;;;;2.42;0.40;;;;;;;3.00;74.39;99812.16;5095948;28;20107;-66
2023/11/25 02:39:58;;;;;;;3.17;0.60;;;;;;;2.92;73.50;99822.84;5094512;28;20544;-65
2023/11/25 02:42:23;;;;;;;2.03;0.40;;;;;;;2.88;74.81;99818.84;5095791;28;20028;-66
2023/11/25 02:44:48;;;;;;;2.03;0.40;;;;;;;2.92;74.82;99818.34;5095136;28;20054;-65
2023/11/25 02:47:14;;;;;;;2.83;0.57;;;;;;;2.90;74.51;99817.69;5094938;28;20031;-66
2023/11/25 02:49:39;;;;;;;2.22;0.50;;;;;;;2.80;75.14;99815.22;5094484;28;20032;-66
2023/11/25 02:52:05;;;;;;;0.98;0.40;;;;;;;2.79;74.77;99821.56;5094539;28;20123;-66
2023/11/25 02:54:30;;;;;;;1.23;0.30;;;;;;;2.72;74.90;99809.97;5090224;28;20028;-65
2023/11/25 02:56:56;;;;;;;1.17;0.50;;;;;;;2.70;76.03;99822.59;5076350;28;20447;-65
2023/11/25 02:59:22;;;;;;;1.20;0.43;;;;;;;2.77;76.55;99818.22;5095462;28;20140;-66
2023/11/25 03:01:52;;;;;;;6.20;0.75;;;;;;;2.73;76.70;99822.25;5095704;28;20101;-66
2023/11/25 03:04:23;;;;;;;0.93;0.47;;;;;;;2.80;77.58;99827.69;5096288;28;20034;-66
2023/11/25 03:06:50;;;;;;;3.78;0.70;;;;;;;2.83;77.38;99833.47;5095613;28;20069;-66
2023/11/25 03:09:17;;;;;;;2.42;0.50;;;;;;;2.87;76.36;99838.44;5094611;28;20364;-66
2023/11/25 03:11:43;;;;;;;3.95;0.70;;;;;;;2.87;76.07;99844.59;5092996;28;20057;-66
2023/11/25 03:14:08;;;;;;;3.55;0.70;;;;;;;2.89;75.96;99841.78;5095840;28;20036;-66
2023/11/25 03:16:34;;;;;;;2.50;0.50;;;;;;;2.85;74.85;99837.78;5100021;28;20478;-66
2023/11/25 03:19:00;;;;;;;1.95;0.60;;;;;;;2.90;74.52;99851.41;5101758;28;20036;-66
2023/11/25 03:21:26;;;;;;;3.30;0.90;;;;;;;2.87;74.29;99849.09;5103852;28;20036;-66
2023/11/25 03:23:51;;;;;;;4.13;0.43;;;;;;;2.85;74.52;99851.06;5102568;28;20060;-66
2023/11/25 03:26:17;;;;;;;3.15;0.55;;;;;;;2.78;74.48;99853.59;5102539;28;20047;-66
2023/11/25 03:28:44;;;;;;;1.83;0.80;;;;;;;2.29;74.13;99776.78;5100760;28;20024;-66
2023/11/25 03:31:10;;;;;;;3.20;0.60;;;;;;;2.74;74.50;99855.75;5097079;28;20024;-66
2023/11/25 03:33:36;;;;;;;2.20;0.70;;;;;;;2.71;75.31;99861.41;5099337;28;20035;-66
2023/11/25 03:36:03;;;;;;;3.13;0.70;;;;;;;2.61;76.50;99860.78;5101955;28;20109;-66
2023/11/25 03:38:29;;;;;;;2.92;0.68;;;;;;;2.66;76.89;99869.09;5100838;28;20016;-66
2023/11/25 03:40:55;;;;;;;4.93;0.70;;;;;;;2.66;76.90;99885.03;5084304;28;20028;-66
2023/11/25 03:43:21;;;;;;;4.57;0.90;;;;;;;2.62;79.69;99888.19;5101419;28;20027;-66
2023/11/25 03:45:47;;;;;;;2.30;0.40;;;;;;;2.51;78.56;99871.59;5102174;28;20056;-65
2023/11/25 03:48:14;;;;;;;1.33;0.57;;;;;;;2.73;79.70;99901.09;5096467;28;20097;-66
2023/11/25 03:50:39;;;;;;;3.17;0.40;;;;;;;2.52;81.14;99883.91;5099705;28;20062;-66
2023/11/25 03:53:04;;;;;;;3.63;0.55;;;;;;;2.81;80.97;99907.22;5101219;28;20031;-65
2023/11/25 03:55:30;;;;;;;1.58;0.47;;;;;;;2.85;80.12;99915.69;5100229;28;20020;-66
2023/11/25 03:57:55;;;;;;;2.40;0.60;;;;;;;2.85;80.58;99930.78;5082686;28;20043;-65
2023/11/25 04:00:22;;;;;;;2.55;0.40;;;;;;;2.83;82.08;99937.09;5098844;28;20047;-66
2023/11/25 04:02:48;;;;;;;2.95;0.93;;;;;;;2.83;82.54;99945.06;5098446;28;20494;-65
2023/11/25 04:05:14;;;;;;;3.35;0.60;;;;;;;2.80;82.64;99945.41;5100588;28;20073;-66
2023/11/25 04:07:40;;;;;;;1.40;0.50;;;;;;;2.89;82.80;99958.69;5098534;28;20049;-66
2023/11/25 04:10:13;;;;;;;2.30;0.55;;;;;;;2.96;82.50;99954.34;5100055;28;20486;-66
2023/11/25 04:12:46;;;;;;;1.48;0.40;;;;;;;3.08;81.89;99960.97;5099617;28;20109;-66
2023/11/25 04:15:13;;;;;;;1.70;0.40;;;;;;;3.04;81.10;99964.94;5100665;28;20032;-65
2023/11/25 04:17:40;;;;;;;2.38;0.60;;;;;;;3.08;80.86;99963.63;5100438;28;20028;-65
2023/11/25 04:20:12;;;;;;;5.80;0.70;;;;;;;3.12;80.84;99972.06;5099852;28;20506;-66
2023/11/25 04:22:43;;;;;;;1.20;0.40;;;;;;;3.26;79.58;99968.69;5105501;28;20035;-66
2023/11/25 04:25:13;;;;;;;2.28;0.50;;;;;;;3.25;79.18;99969.69;5103400;28;20016;-66
2023/11/25 04:27:42;;;;;;;1.80;0.40;;;;;;;3.00;80.12;99975.09;5097460;28;20032;-66
2023/11/25 04:30:09;;;;;;;1.55;0.45;;;;;;;3.03;80.56;99980.06;5098045;28;20044;-66
2023/11/25 04:32:36;;;;;;;4.85;0.50;;;;;;;3.02;80.09;99981.06;5097315;28;20035;-66
2023/11/25 04:35:04;;;;;;;2.33;0.40;;;;;;;3.17;78.67;99994.47;5096979;28;20024;-66
2023/11/25 04:37:30;;;;;;;2.08;0.45;;;;;;;3.11;79.99;100005.78;5096730;28;20169;-66
2023/11/25 04:39:56;;;;;;;2.63;0.40;;;;;;;3.20;79.48;100009.25;5098219;28;20055;-66
2023/11/25 04:42:21;;;;;;;1.42;0.40;;;;;;;3.31;77.63;100008.88;5096812;28;20054;-66
2023/11/25 04:44:46;;;;;;;1.55;0.50;;;;;;;3.25;78.98;100021.03;5097593;28;20339;-66
2023/11/25 04:47:12;;;;;;;2.58;0.40;;;;;;;3.12;78.77;100023.41;5079744;28;20039;-66
2023/11/25 04:49:39;;;;;;;3.47;0.40;;;;;;;3.19;79.72;100026.22;5096607;28;20062;-65
2023/11/25 04:52:05;;;;;;;1.75;0.45;;;;;;;3.35;79.42;100030.66;5098135;28;20129;-66
2023/11/25 04:54:30;;;;;;;2.03;0.43;;;;;;;3.25;79.98;100026.34;5096535;28;20040;-65
2023/11/25 04:56:55;;;;;;;3.35;0.50;;;;;;;3.36;79.54;100032.31;5096973;28;20032;-65
2023/11/25 04:59:21;;;;;;;1.45;0.30;;;;;;;3.40;79.24;100039.75;5096958;28;20044;-65
2023/11/25 05:01:46;;;;;;;1.73;0.32;;;;;;;3.25;79.98;100044.97;5095911;28;20540;-66
2023/11/25 05:04:12;;;;;;;1.90;0.45;;;;;;;3.16;81.51;100045.97;5095514;28;20063;-66
2023/11/25 05:06:38;;;;;;;2.90;0.60;;;;;;;3.22;82.01;100055.13;5096597;28;20542;-65
2023/11/25 05:09:04;;;;;;;1.73;0.30;;;;;;;3.18;82.88;100057.28;5095353;28;20078;-66
2023/11/25 05:11:30;;;;;;;2.72;0.45;;;;;;;3.21;82.20;100061.41;5096802;28;20020;-65
2023/11/25 05:13:57;;;;;;;2.38;0.68;;;;;;;3.17;83.80;100060.94;5096243;28;20118;-65
2023/11/25 05:16:23;;;;;;;1.95;0.50;;;;;;;3.03;84.13;100049.16;5098256;28;20024;-65
2023/11/25 05:18:48;;;;;;;3.53;0.73;;;;;;;3.28;83.86;100073.88;5079299;28;20145;-66
2023/11/25 05:21:14;;;;;;;4.97;0.90;;;;;;;2.95;87.80;100090.88;5095986;28;20508;-65
2023/11/25 05:23:40;;;;;;;3.17;0.57;;;;;;;2.94;89.71;100091.84;5094309;28;20108;-65
2023/11/25 05:26:05;;;;;;;3.38;0.70;;;;;;;2.93;91.53;100108.81;5097745;28;20163;-66
2023/11/25 05:28:31;;;;;;;2.65;0.45;;;;;;;2.92;92.78;100113.28;5102032;28;20070;-66
2023/11/25 05:30:56;;;;;;;2.85;0.60;;;;;;;3.00;91.44;100120.44;5098661;28;20028;-66
2023/11/25 05:33:23;;;;;;;1.60;0.50;;;;;;;2.41;92.70;100046.19;5097597;28;20540;-66
2023/11/25 05:35:48;;;;;;;3.25;0.80;;;;;;;2.94;93.54;100131.72;5079096;28;20032;-65
2023/11/25 05:38:15;;;;;;;2.78;0.40;;;;;;;3.06;91.55;100135.72;5095576;28;20028;-65
2023/11/25 05:40:41;;;;;;;5.00;0.60;;;;;;;2.90;92.68;100149.81;5097409;28;20024;-65
2023/11/25 05:43:06;;;;;;;3.13;0.50;;;;;;;3.11;89.51;100138.69;5096813;28;20062;-66
2023/11/25 05:45:31;;;;;;;2.90;0.50;;;;;;;3.18;88.66;100144.16;5097010;28;20039;-65
2023/11/25 05:47:57;;;;;;;2.75;0.55;;;;;;;3.17;87.80;100146.00;5097351;28;20058;-65
2023/11/25 05:50:23;;;;;;;2.42;0.80;;;;;;;3.05;88.17;100148.19;5096438;28;20035;-65
2023/11/25 05:52:50;;;;;;;1.95;0.52;;;;;;;3.15;87.99;100160.47;5096043;28;20028;-66
2023/11/25 05:55:15;;;;;;;2.83;0.57;;;;;;;2.88;89.34;100148.31;5095944;28;20101;-65
2023/11/25 05:57:44;;;;;;;2.30;0.60;;;;;;;3.04;89.29;100173.06;5097107;28;20494;-65
2023/11/25 06:00:12;;;;;;;2.60;0.70;;;;;;;3.10;88.42;100170.75;5096269;28;20051;-66
2023/11/25 06:02:38;;;;;;;1.73;0.30;;;;;;;3.01;87.99;100185.88;5095960;28;20040;-66
2023/11/25 06:05:03;;;;;;;2.03;0.52;;;;;;;2.97;87.09;100179.22;5093454;28;20034;-66
2023/11/25 06:07:29;;;;;;;2.05;0.70;;;;;;;2.91;87.51;100206.44;5095456;28;20376;-66
2023/11/25 06:09:55;;;;;;;3.35;0.93;;;;;;;2.64;92.76;100200.44;5096673;28;20547;-65
2023/11/25 06:12:20;;;;;;;4.88;0.75;;;;;;;2.80;91.20;100200.47;5078370;28;20024;-65
2023/11/25 06:14:48;;;;;;;1.35;0.50;;;;;;;2.96;91.11;100199.66;5096067;28;20032;-66
2023/11/25 06:17:14;;;;;;;1.73;0.60;;;;;;;2.91;90.14;100209.09;5096455;28;20103;-65
2023/11/25 06:19:42;;;;;;;2.92;0.60;;;;;;;2.99;89.83;100214.44;5096198;28;20169;-65
2023/11/25 06:22:08;;;;;;;4.70;0.40;;;;;;;2.94;89.94;100224.72;5078168;28;20032;-66
2023/11/25 06:24:33;;;;;;;5.03;0.52;;;;;;;2.99;88.13;100214.44;5096075;28;20132;-66
2023/11/25 06:26:58;;;;;;;3.72;0.70;;;;;;;3.15;87.31;100235.72;5078342;28;20479;-66
2023/11/25 06:29:24;;;;;;;1.77;0.57;;;;;;;3.10;87.23;100243.34;5094945;28;20058;-65
2023/11/25 06:31:49;;;;;;;3.55;0.82;;;;;;;2.96;87.93;100252.81;5096105;28;20490;-66
2023/11/25 06:34:15;;;;;;;1.58;0.77;;;;;;;2.99;87.53;100252.50;5096028;28;20036;-66
2023/11/25 06:36:40;;;;;;;2.75;0.65;;;;;;;3.00;86.62;100261.28;5094922;28;20461;-66
2023/11/25 06:39:07;;;;;;;2.10;0.80;;;;;;;2.82;87.34;100248.13;5095413;28;20064;-66
2023/11/25 06:41:33;;;;;;;1.90;0.65;;;;;;;2.85;87.82;100250.47;5095264;28;20024;-67
2023/11/25 06:43:58;;;;;;;2.42;0.60;;;;;;;2.91;86.42;100249.78;5061537;28;20085;-67
2023/11/25 06:46:23;;;;;;;2.25;0.82;;;;;;;2.89;87.04;100256.28;5078221;28;20397;-67
2023/11/25 06:48:49;;;;;;;2.33;0.85;;;;;;;2.71;88.79;100254.56;5093785;28;20108;-67
2023/11/25 06:51:14;;;;;;;2.83;0.60;;;;;;;2.63;89.75;100267.84;5093400;28;20028;-67
2023/11/25 06:53:40;;;;;;;2.15;0.60;;;;;;;2.70;88.27;100274.16;5095479;28;20787;-65
2023/11/25 06:56:11;;;;;;;2.50;0.65;;;;;;;2.72;88.28;100297.94;5077276;28;20526;-66
2023/11/25 06:58:37;;;;;;;1.77;0.47;;;;;;;2.71;87.19;100291.75;5097437;28;20515;-65
2023/11/25 07:01:04;;;;;;;2.53;0.70;;;;;;;2.53;89.31;100286.56;5095404;28;20028;-65
2023/11/25 07:03:30;;;;;;;2.60;0.68;;;;;;;2.59;90.25;100282.44;5111527;28;20016;-67
2023/11/25 07:05:57;;;;;;;2.85;0.80;;;;;;;2.70;90.08;100299.91;5096304;28;20039;-67
2023/11/25 07:08:24;;;;;;;3.20;0.60;;;;;;;2.60;90.38;100286.75;5077680;28;20029;-65
2023/11/25 07:10:53;;;;;;;2.58;0.85;;;;;;;2.57;91.12;100298.50;5096291;28;20032;-66
2023/11/25 07:13:23;;;;;;;2.50;0.82;;;;;;;2.58;90.48;100294.88;5095179;28;20031;-66
2023/11/25 07:15:49;;;;;;;2.22;0.80;;;;;;;2.63;90.27;100318.31;5093653;28;20103;-66
2023/11/25 07:18:14;;;;;;;3.15;0.70;;;;;;;2.75;89.25;100314.38;5094280;28;20079;-65
2023/11/25 07:20:39;;;;;;;3.47;0.68;;;;;;;2.65;89.20;100297.75;5095308;28;20059;-66
2023/11/25 07:23:05;;;;;;;2.95;0.80;;;;;;;2.65;89.92;100320.78;5094018;28;20452;-65
2023/11/25 07:25:32;;;;;;;2.45;0.73;;;;;;;2.73;89.44;100318.19;5095348;28;20024;-67
2023/11/25 07:27:57;;;;;;;1.75;0.40;;;;;;;2.61;89.71;100330.91;5095789;28;20101;-66
2023/11/25 07:30:23;;;;;;;2.70;0.80;;;;;;;2.61;89.85;100336.22;5095694;28;20490;-67
2023/11/25 07:32:48;;;;;;;1.73;0.60;;;;;;;2.56;89.65;100314.63;5077530;28;20035;-67
2023/11/25 07:35:14;;;;;;;3.05;0.80;;;;;;;2.81;86.25;100332.34;5095960;28;20111;-66
2023/11/25 07:37:39;;;;;;;3.88;0.73;;;;;;;2.68;86.61;100323.97;5077439;28;20119;-66
2023/11/25 07:40:12;;;;;;;5.25;1.27;;;;;;;2.74;86.17;100355.19;5093959;28;20053;-66
2023/11/25 07:42:37;;;;;;;2.50;0.60;;;;;;;2.69;86.56;100352.19;5094981;28;20028;-66
2023/11/25 07:45:09;;;;;;;2.97;0.73;;;;;;;2.67;87.75;100362.13;5111459;28;20227;-66
2023/11/25 07:47:34;;;;;;;2.28;0.73;;;;;;;2.64;88.04;100370.44;5093929;28;20039;-66
2023/11/25 07:50:00;;;;;;;3.72;0.68;;;;;;;2.43;88.99;100348.75;5093288;28;20028;-66
2023/11/25 07:52:25;;;;;;;3.45;0.90;;;;;;;2.44;90.75;100369.81;5095118;28;20040;-67
2023/11/25 07:54:51;;;;;;;2.55;0.85;;;;;;;2.43;91.02;100375.31;5093441;28;20493;-65
2023/11/25 07:57:16;;;;;;;2.65;0.70;;;;;;;2.38;90.86;100385.53;5090355;28;20140;-65
2023/11/25 07:59:42;;;;;;;1.77;0.60;;;;;;;2.33;90.29;100392.16;5094931;28;20047;-65
2023/11/25 08:02:08;;;;;;;3.13;0.95;;;;;;;2.31;89.36;100393.31;5097671;28;20036;-65
2023/11/25 08:04:33;;;;;;;1.35;0.70;;;;;;;2.25;88.34;100407.19;5097388;28;20039;-65
2023/11/25 08:06:59;;;;;;;1.85;0.65;;;;;;;2.23;87.32;100398.56;5097971;28;20436;-65
2023/11/25 08:09:24;;;;;;;2.53;0.80;;;;;;;2.26;86.54;100403.56;5096067;28;20028;-65
2023/11/25 08:11:50;;;;;;;2.70;0.60;;;;;;;2.17;85.52;100410.63;5098853;28;20077;-65
2023/11/25 08:14:16;;;;;;;2.08;0.70;;;;;;;2.37;84.17;100402.47;5099478;28;20059;-65
2023/11/25 08:16:41;;;;;;;1.55;0.65;;;;;;;2.27;83.65;100406.06;5080914;28;20395;-65
2023/11/25 08:19:07;;;;;;;4.43;0.77;;;;;;;2.27;82.74;100407.88;5095688;28;20030;-64
2023/11/25 08:21:32;;;;;;;0.90;0.60;;;;;;;2.30;82.18;100408.41;5094232;28;20035;-65
2023/11/25 08:23:58;;;;;;;1.40;0.50;;;;;;;2.33;81.55;100409.91;5098349;28;20548;-67
2023/11/25 08:26:27;;;;;;;1.90;0.60;;;;;;;2.38;80.34;100412.94;5096962;28;20036;-65
2023/11/25 08:28:53;;;;;;;2.85;0.50;;;;;;;2.42;80.25;100418.75;5097197;28;20020;-65
2023/11/25 08:31:19;;;;;;;1.55;0.55;;;;;;;2.41;79.90;100383.41;5098242;28;20053;-65
2023/11/25 08:33:45;;;;;;;1.45;0.47;;;;;;;2.62;79.35;100430.88;5097905;28;20067;-66
2023/11/25 08:36:11;;;;;;;1.38;0.77;;;;;;;2.66;79.30;100426.91;5079828;28;20154;-65
2023/11/25 08:38:40;;;;;;;1.60;0.60;;;;;;;2.55;78.62;100432.44;5096663;28;20034;-65
2023/11/25 08:41:07;;;;;;;2.97;0.68;;;;;;;2.53;78.21;100431.78;5096885;28;20031;-66
2023/11/25 08:43:34;;;;;;;1.45;0.52;;;;;;;2.66;78.54;100434.88;5096857;28;20032;-66
2023/11/25 08:46:00;;;;;;;1.40;0.60;;;;;;;2.64;78.99;100450.13;5113977;28;20372;-66
2023/11/25 08:48:26;;;;;;;1.60;0.60;;;;;;;2.44;77.40;100411.47;5096913;28;20020;-66
2023/11/25 08:50:52;;;;;;;2.10;0.63;;;;;;;2.34;78.06;100446.91;5097353;28;20028;-65
2023/11/25 08:53:18;;;;;;;1.10;0.60;;;;;;;2.57;77.27;100459.69;5094881;28;20058;-66
2023/11/25 08:55:43;;;;;;;1.75;0.50;;;;;;;2.65;78.26;100473.06;5099330;28;20036;-66
2023/11/25 08:58:09;;;;;;;1.05;0.50;;;;;;;2.42;77.49;100455.94;5103220;28;20047;-66
2023/11/25 09:00:36;;;;;;;1.02;0.55;;;;;;;2.60;76.42;100467.34;5080980;28;20523;-65
2023/11/25 09:03:07;;;;;;;0.93;0.57;;;;;;;2.73;75.86;100458.97;5080192;28;20043;-66
2023/11/25 09:05:33;;;;;;;1.38;0.80;;;;;;;2.71;75.81;100469.75;5096769;28;20447;-65
2023/11/25 09:08:00;;;;;;;1.40;0.60;;;;;;;2.72;75.40;100468.78;5096812;28;20031;-65
2023/11/25 09:10:26;;;;;;;1.90;0.70;;;;;;;2.68;75.47;100469.22;5098029;28;20051;-66
2023/11/25 09:12:52;;;;;;;1.85;0.60;;;;;;;2.77;75.31;100477.09;5096306;28;20020;-65
2023/11/25 09:15:18;;;;;;;1.90;0.60;;;;;;;2.76;75.32;100475.44;5093679;28;20028;-66
2023/11/25 09:17:44;;;;;;;2.85;0.75;;;;;;;2.87;74.66;100476.16;5096949;28;20052;-66
2023/11/25 09:20:12;;;;;;;2.20;1.00;;;;;;;2.98;74.11;100462.59;5095849;28;20078;-66
2023/11/25 09:22:43;;;;;;;1.83;0.60;;;;;;;3.12;73.70;100485.94;5096204;28;20050;-67
2023/11/25 09:25:12;;;;;;;2.58;0.60;;;;;;;3.21;73.05;100482.34;5096203;28;20096;-66
2023/11/25 09:27:39;;;;;;;2.20;0.82;;;;;;;3.08;74.24;100484.59;5096890;28;20398;-66
2023/11/25 09:30:05;;;;;;;0.65;0.38;;;;;;;2.08;73.48;100459.31;5096401;28;20032;-66
2023/11/25 09:32:31;;;;;;;0.93;0.60;;;;;;;2.37;73.54;100500.72;5096315;28;20164;-66
2023/11/25 09:34:57;;;;;;;0.93;0.47;;;;;;;2.43;73.30;100516.03;5096293;28;20028;-66
2023/11/25 09:37:23;;;;;;;0.68;0.40;;;;;;;2.49;72.39;100512.78;5097690;28;20505;-66
2023/11/25 09:39:48;;;;;;;1.02;0.50;;;;;;;2.51;71.54;100503.63;5096490;28;20046;-65
2023/11/25 09:42:14;;;;;;;1.30;0.40;;;;;;;2.47;71.59;100488.19;5097062;28;20063;-66
2023/11/25 09:44:43;;;;;;;0.50;0.43;;;;;;;2.52;70.67;100521.25;5097109;28;20114;-66
2023/11/25 09:47:08;;;;;;;1.13;0.57;;;;;;;2.35;71.44;100477.81;5079412;28;20040;-66
2023/11/25 09:49:34;;;;;;;1.35;0.40;;;;;;;2.64;70.81;100505.91;5096823;28;20110;-66
2023/11/25 09:52:05;;;;;;;0.50;0.40;;;;;;;2.50;69.75;100511.78;5096896;28;20059;-66
2023/11/25 09:54:31;;;;;;;0.70;0.47;;;;;;;2.42;69.63;100509.91;5096220;28;20058;-66
2023/11/25 09:57:00;;;;;;;0.75;0.40;;;;;;;2.53;69.58;100511.47;5097407;28;20119;-66
2023/11/25 09:59:28;;;;;;;0.30;0.30;;;;;;;2.67;69.61;100521.53;5097854;28;20048;-65
2023/11/25 10:01:53;;;;;;;0.73;0.40;;;;;;;2.61;69.47;100518.66;5094932;28;20066;-66
2023/11/25 10:04:20;;;;;;;0.40;0.35;;;;;;;2.52;67.70;100525.75;5094083;28;20056;-66
2023/11/25 10:06:48;;;;;;;0.57;0.40;;;;;;;2.52;69.06;100523.09;5077161;28;20050;-66
2023/11/25 10:09:15;;;;;;;1.00;0.40;;;;;;;2.32;69.27;100527.75;5093863;28;20032;-66
2023/11/25 10:11:44;;;;;;;0.70;0.30;;;;;;;2.73;68.65;100520.09;5093715;28;20171;-66
2023/11/25 10:14:13;;;;;;;0.50;0.30;;;;;;;2.66;68.56;100529.66;5091414;28;20040;-66
2023/11/25 10:16:43;;;;;;;1.23;0.40;;;;;;;2.64;68.05;100526.31;5074949;28;20561;-66
2023/11/25 10:19:17;;;;;;;0.60;0.40;;;;;;;2.54;67.70;100494.53;5091998;28;20032;-66
2023/11/25 10:21:45;;;;;;;0.95;0.30;;;;;;;2.38;65.95;100520.97;5090943;28;20362;-66
2023/11/25 10:24:11;;;;;;;0.75;0.30;;;;;;;2.57;67.05;100528.75;5088632;28;20426;-66
2023/11/25 10:26:37;;;;;;;1.02;0.50;;;;;;;2.64;67.27;100535.13;5089190;28;20028;-66
2023/11/25 10:29:03;;;;;;;0.90;0.50;;;;;;;2.28;66.45;100539.63;5088927;28;20115;-66
2023/11/25 10:31:30;;;;;;;1.05;0.40;;;;;;;2.12;67.39;100537.69;5091972;28;20125;-66
2023/11/25 10:33:56;;;;;;;0.60;0.40;;;;;;;2.03;67.23;100541.22;5094434;28;20032;-66
2023/11/25 10:36:21;;;;;;;0.68;0.40;;;;;;;2.03;65.71;100543.88;5093013;28;20054;-66
2023/11/25 10:38:48;;;;;;;1.20;0.40;;;;;;;1.97;66.67;100555.09;5096630;28;20027;-66
2023/11/25 10:41:14;;;;;;;0.93;0.50;;;;;;;2.01;66.59;100548.50;5095836;28;20046;-66
2023/11/25 10:43:42;;;;;;;0.50;0.40;;;;;;;2.14;66.44;100537.50;5095779;28;20032;-66
2023/11/25 10:46:10;;;;;;;0.68;0.30;;;;;;;1.97;66.08;100555.09;5095561;28;20023;-66
2023/11/25 10:48:38;;;;;;;0.50;0.30;;;;;;;2.24;65.66;100548.88;5095498;28;20065;-66
2023/11/25 10:51:05;;;;;;;0.82;0.50;;;;;;;1.96;64.52;100556.06;5096819;28;20433;-66
2023/11/25 10:53:31;;;;;;;0.70;0.40;;;;;;;2.11;66.29;100581.94;5095039;28;20028;-67
2023/11/25 10:56:00;;;;;;;0.98;0.30;;;;;;;1.91;67.04;100582.22;5095055;28;20131;-66
2023/11/25 10:58:27;;;;;;;0.50;0.40;;;;;;;2.08;66.84;100587.53;5096013;28;20051;-66
2023/11/25 11:00:54;;;;;;;0.73;0.50;;;;;;;1.92;64.66;100571.47;5078245;28;20032;-65
2023/11/25 11:03:22;;;;;;;0.82;0.30;;;;;;;2.16;64.12;100575.38;5096365;28;20026;-66
2023/11/25 11:05:59;;;;;;;0.73;0.50;;;;;;;1.95;63.48;100608.28;5094716;28;20490;-66
2023/11/25 11:08:31;;;;;;;1.17;0.40;;;;;;;2.06;64.37;100605.44;5094466;28;20066;-66
2023/11/25 11:11:25;;;;;;;2.25;0.45;;;;;;;1.98;63.40;100602.69;5094308;28;20028;-66
2023/11/25 11:14:07;;;;;;;0.85;0.40;;;;;;;1.89;62.85;100606.25;5094391;28;20035;-66
2023/11/25 11:17:04;;;;;;;1.00;0.43;;;;;;;1.83;62.32;100589.09;5100375;28;20028;-66
2023/11/25 11:19:42;;;;;;;0.30;0.30;;;;;;;1.87;62.88;100577.19;5092024;28;20494;-66
2023/11/25 11:22:13;;;;;;;0.35;0.20;;;;;;;1.96;62.98;100594.06;5078225;28;20036;-66
2023/11/25 11:25:07;;;;;;;1.00;0.40;;;;;;;1.92;61.79;100605.09;5096107;28;20028;-66
2023/11/25 11:28:11;;;;;;;0.47;0.30;;;;;;;1.71;62.42;100622.09;5096243;28;20363;-65
2023/11/25 11:30:58;;;;;;;1.05;0.40;;;;;;;1.80;62.29;100618.56;5090423;28;20459;-66
2023/11/25 11:33:25;;;;;;;1.23;0.50;;;;;;;1.63;61.98;100609.56;5095786;28;20043;-65
2023/11/25 11:35:50;;;;;;;0.77;0.30;;;;;;;1.57;61.78;100609.31;5096975;28;20047;-66